Time;durP1;ratioP1;P1;durP2;ratioP2;P2;SDS_P1;SDS_P2;PMS_P1;PMS_P2;Temp;Humidity;BMP_temperature;BMP_pressure;BME280_temperature;BME280_humidity;BME280_pressure;Samples;Min_cycle;Max_cycle;Signal;HPM_P1;HPM_P2
2023/04/24 00:00:56;;;;;;;6.55;5.78;;;;;;;;;;4868842;29;20505;-76
2023/04/24 00:03:21;;;;;;;6.93;5.55;;;;;;;;;;4869697;29;20049;-77
2023/04/24 00:05:47;;;;;;;6.13;5.50;;;;;;;;;;4885102;29;20021;-76
2023/04/24 00:08:12;;;;;;;7.47;5.05;;;;;;;;;;4886573;29;20103;-77
2023/04/24 00:10:38;;;;;;;6.88;5.90;;;;;;;;;;4883088;29;20024;-77
2023/04/24 00:13:03;;;;;;;8.40;5.40;;;;;;;;;;4869932;29;20973;-77
2023/04/24 00:15:28;;;;;;;8.23;5.70;;;;;;;;;;4886001;29;20032;-77
2023/04/24 00:17:54;;;;;;;6.10;4.63;;;;;;;;;;4878511;29;20087;-76
2023/04/24 00:20:19;;;;;;;6.15;5.07;;;;;;;;;;4886939;29;20021;-77
2023/04/24 00:22:45;;;;;;;5.60;5.05;;;;;;;;;;4868768;29;20035;-76
2023/04/24 00:25:10;;;;;;;6.60;5.22;;;;;;;;;;4872154;29;20075;-76
2023/04/24 00:27:36;;;;;;;7.32;5.35;;;;;;;;;;4879448;29;20032;-78
2023/04/24 00:30:02;;;;;;;9.30;4.30;;;;;;;;;;4889342;29;20501;-77
2023/04/24 00:32:27;;;;;;;8.32;5.40;;;;;;;;;;4888963;29;20028;-76
2023/04/24 00:34:52;;;;;;;6.55;5.68;;;;;;;;;;4881583;29;20447;-77
2023/04/24 00:37:18;;;;;;;7.20;5.87;;;;;;;;;;4903665;29;20021;-77
2023/04/24 00:39:43;;;;;;;8.48;5.68;;;;;;;;;;4904440;29;20315;-77
2023/04/24 00:42:09;;;;;;;6.13;5.05;;;;;;;;;;4889355;29;20049;-77
2023/04/24 00:44:34;;;;;;;5.53;4.90;;;;;;;;;;4889585;29;20515;-77
2023/04/24 00:47:00;;;;;;;9.15;6.00;;;;;;;;;;4889787;29;20037;-77
2023/04/24 00:49:25;;;;;;;9.50;5.55;;;;;;;;;;4888881;29;20039;-77
2023/04/24 00:51:51;;;;;;;6.18;5.25;;;;;;;;;;4872825;29;20057;-77
2023/04/24 00:54:17;;;;;;;6.35;5.72;;;;;;;;;;4888569;29;20111;-77
2023/04/24 00:56:43;;;;;;;7.82;5.40;;;;;;;;;;4872763;29;20028;-77
2023/04/24 00:59:09;;;;;;;10.52;5.78;;;;;;;;;;4888017;29;20104;-77
2023/04/24 01:01:34;;;;;;;5.63;4.68;;;;;;;;;;4872398;29;20140;-77
2023/04/24 01:04:00;;;;;;;6.95;4.00;;;;;;;;;;4888598;29;20028;-77
2023/04/24 01:06:27;;;;;;;4.25;3.85;;;;;;;;;;4889690;29;20043;-77
2023/04/24 01:08:53;;;;;;;4.15;3.72;;;;;;;;;;4889433;29;20039;-77
2023/04/24 01:11:18;;;;;;;4.20;3.90;;;;;;;;;;4872219;29;20028;-77
2023/04/24 01:13:43;;;;;;;6.30;4.60;;;;;;;;;;4872295;29;20025;-77
2023/04/24 01:16:09;;;;;;;7.57;3.70;;;;;;;;;;4888479;29;20032;-77
2023/04/24 01:18:34;;;;;;;8.15;5.60;;;;;;;;;;4889708;29;20032;-76
2023/04/24 01:21:02;;;;;;;7.45;5.55;;;;;;;;;;4888736;29;20099;-77
2023/04/24 01:23:28;;;;;;;5.65;5.15;;;;;;;;;;4888783;29;20025;-76
2023/04/24 01:25:53;;;;;;;6.93;4.20;;;;;;;;;;4888260;29;20040;-77
2023/04/24 01:28:19;;;;;;;6.68;4.13;;;;;;;;;;4872036;29;20021;-76
2023/04/24 01:30:44;;;;;;;4.93;4.53;;;;;;;;;;4888741;29;20028;-77
2023/04/24 01:33:10;;;;;;;5.30;4.53;;;;;;;;;;4871456;29;20463;-78
2023/04/24 01:35:36;;;;;;;10.07;5.22;;;;;;;;;;4872524;29;20553;-77
2023/04/24 01:38:01;;;;;;;5.40;4.10;;;;;;;;;;4888618;29;20020;-77
2023/04/24 01:40:26;;;;;;;4.75;4.35;;;;;;;;;;4885000;29;20052;-76
2023/04/24 01:42:52;;;;;;;4.45;4.05;;;;;;;;;;4871022;29;20044;-77
2023/04/24 01:45:17;;;;;;;8.10;5.78;;;;;;;;;;4887840;29;20029;-77
2023/04/24 01:47:43;;;;;;;11.18;5.00;;;;;;;;;;4870636;29;20025;-76
2023/04/24 01:50:09;;;;;;;10.27;5.93;;;;;;;;;;4888027;29;20566;-77
2023/04/24 01:52:35;;;;;;;8.80;5.05;;;;;;;;;;4869557;29;20056;-76
2023/04/24 01:55:01;;;;;;;6.82;5.82;;;;;;;;;;4888242;29;20033;-77
2023/04/24 01:57:26;;;;;;;6.28;5.68;;;;;;;;;;4888149;29;20058;-77
2023/04/24 01:59:51;;;;;;;8.55;5.22;;;;;;;;;;4870752;29;20119;-77
2023/04/24 02:02:17;;;;;;;7.22;5.57;;;;;;;;;;4887669;29;20035;-77
2023/04/24 02:04:42;;;;;;;7.05;6.32;;;;;;;;;;4870214;29;20407;-76
2023/04/24 02:07:07;;;;;;;10.70;6.00;;;;;;;;;;4885322;29;20045;-76
2023/04/24 02:09:33;;;;;;;7.72;6.95;;;;;;;;;;4867768;29;20029;-77
2023/04/24 02:11:58;;;;;;;9.45;8.38;;;;;;;;;;4882852;29;20062;-76
2023/04/24 02:14:23;;;;;;;8.70;7.30;;;;;;;;;;4875846;29;20020;-76
2023/04/24 02:16:48;;;;;;;8.40;7.03;;;;;;;;;;4870762;29;20033;-76
2023/04/24 02:19:14;;;;;;;7.22;6.00;;;;;;;;;;4886926;29;20020;-76
2023/04/24 02:21:39;;;;;;;7.65;7.00;;;;;;;;;;4858369;29;20081;-76
2023/04/24 02:24:04;;;;;;;7.65;6.45;;;;;;;;;;4886001;29;20024;-76
2023/04/24 02:26:31;;;;;;;7.60;7.00;;;;;;;;;;4887260;29;20512;-76
2023/04/24 02:28:56;;;;;;;6.90;6.20;;;;;;;;;;4871449;29;20025;-77
2023/04/24 02:31:22;;;;;;;7.93;5.70;;;;;;;;;;4887131;29;20087;-76
2023/04/24 02:33:47;;;;;;;9.77;6.90;;;;;;;;;;4857529;29;20036;-76
2023/04/24 02:36:13;;;;;;;7.10;6.45;;;;;;;;;;4844103;29;20264;-76
2023/04/24 02:38:38;;;;;;;7.63;6.93;;;;;;;;;;4887331;29;20028;-77
2023/04/24 02:41:06;;;;;;;8.43;7.70;;;;;;;;;;4866354;29;20021;-76
2023/04/24 02:43:31;;;;;;;6.75;6.13;;;;;;;;;;4860813;29;20059;-76
2023/04/24 02:45:56;;;;;;;8.90;6.47;;;;;;;;;;4870870;29;20081;-76
2023/04/24 02:48:21;;;;;;;8.25;6.43;;;;;;;;;;4886430;29;20055;-77
2023/04/24 02:50:47;;;;;;;7.70;5.53;;;;;;;;;;4871039;29;20044;-76
2023/04/24 02:53:12;;;;;;;7.38;5.53;;;;;;;;;;4880504;29;20017;-76
2023/04/24 02:55:38;;;;;;;6.50;5.80;;;;;;;;;;4880169;29;20047;-76
2023/04/24 02:58:03;;;;;;;12.05;6.43;;;;;;;;;;4870059;29;20045;-76
2023/04/24 03:00:28;;;;;;;6.83;6.27;;;;;;;;;;4864505;29;20020;-77
2023/04/24 03:02:53;;;;;;;8.60;6.05;;;;;;;;;;4881408;29;20320;-76
2023/04/24 03:05:19;;;;;;;7.97;5.75;;;;;;;;;;4868132;29;20028;-76
2023/04/24 03:07:45;;;;;;;7.97;5.53;;;;;;;;;;4873086;29;20108;-77
2023/04/24 03:10:10;;;;;;;5.18;4.68;;;;;;;;;;4863483;29;21050;-76
2023/04/24 03:12:36;;;;;;;7.00;5.32;;;;;;;;;;4886687;29;20029;-77
2023/04/24 03:15:01;;;;;;;11.05;6.22;;;;;;;;;;4886615;29;20063;-77
2023/04/24 03:17:26;;;;;;;6.35;4.15;;;;;;;;;;4874714;29;20467;-79
2023/04/24 03:19:51;;;;;;;7.18;5.05;;;;;;;;;;4887208;29;20043;-77
2023/04/24 03:22:17;;;;;;;6.65;4.88;;;;;;;;;;4858234;29;20438;-78
2023/04/24 03:24:42;;;;;;;5.87;4.40;;;;;;;;;;4886584;29;20033;-77
2023/04/24 03:27:07;;;;;;;6.93;4.97;;;;;;;;;;4870511;29;20872;-78
2023/04/24 03:29:32;;;;;;;8.35;4.35;;;;;;;;;;4865577;29;20029;-77
2023/04/24 03:31:58;;;;;;;4.40;3.95;;;;;;;;;;4877883;29;20033;-76
2023/04/24 03:34:23;;;;;;;4.60;4.07;;;;;;;;;;4869705;29;20032;-77
2023/04/24 03:36:48;;;;;;;8.65;7.85;;;;;;;;;;4869740;29;20407;-77
2023/04/24 03:39:14;;;;;;;12.55;8.25;;;;;;;;;;4886646;29;20080;-77
2023/04/24 03:41:39;;;;;;;22.15;13.95;;;;;;;;;;4886353;29;20016;-77
2023/04/24 03:44:04;;;;;;;13.57;8.57;;;;;;;;;;4875754;29;20032;-76
2023/04/24 03:46:30;;;;;;;16.10;8.98;;;;;;;;;;4884116;29;20388;-76
2023/04/24 03:48:55;;;;;;;20.48;9.32;;;;;;;;;;4887273;29;20444;-77
2023/04/24 03:51:20;;;;;;;19.65;11.27;;;;;;;;;;4886227;29;20063;-77
2023/04/24 03:53:46;;;;;;;8.07;6.70;;;;;;;;;;4886435;29;20119;-77
2023/04/24 03:56:11;;;;;;;7.18;5.45;;;;;;;;;;4886507;29;20395;-76
2023/04/24 03:58:36;;;;;;;10.02;5.47;;;;;;;;;;4886079;29;20492;-77
2023/04/24 04:01:02;;;;;;;5.30;4.80;;;;;;;;;;4869427;29;20039;-76
2023/04/24 04:03:27;;;;;;;8.52;4.07;;;;;;;;;;4886557;29;20025;-76
2023/04/24 04:05:54;;;;;;;7.63;4.53;;;;;;;;;;4863911;29;20064;-77
2023/04/24 04:08:19;;;;;;;8.38;4.22;;;;;;;;;;4854747;29;20391;-77
2023/04/24 04:10:44;;;;;;;5.63;4.25;;;;;;;;;;4889173;29;20036;-77
2023/04/24 04:13:10;;;;;;;6.32;4.75;;;;;;;;;;4889633;29;20463;-78
2023/04/24 04:15:35;;;;;;;5.43;4.50;;;;;;;;;;4888233;29;20020;-77
2023/04/24 04:18:00;;;;;;;6.13;4.40;;;;;;;;;;4862346;29;20032;-77
2023/04/24 04:20:26;;;;;;;6.43;4.53;;;;;;;;;;4876187;29;20087;-77
2023/04/24 04:22:51;;;;;;;6.07;4.00;;;;;;;;;;4875714;29;20037;-77
2023/04/24 04:25:19;;;;;;;6.20;3.83;;;;;;;;;;4878719;29;20276;-78
2023/04/24 04:27:44;;;;;;;4.60;4.05;;;;;;;;;;4888244;29;20308;-77
2023/04/24 04:30:09;;;;;;;5.30;3.67;;;;;;;;;;4872354;29;20056;-77
2023/04/24 04:32:35;;;;;;;8.13;4.32;;;;;;;;;;4877834;29;20065;-78
2023/04/24 04:35:03;;;;;;;5.75;3.70;;;;;;;;;;4889699;29;20029;-79
2023/04/24 04:37:29;;;;;;;6.53;3.38;;;;;;;;;;4877182;29;20029;-80
2023/04/24 04:39:55;;;;;;;10.32;3.92;;;;;;;;;;4864853;29;20029;-77
2023/04/24 04:42:20;;;;;;;5.95;3.72;;;;;;;;;;4881430;29;20798;-78
2023/04/24 04:44:46;;;;;;;4.68;3.65;;;;;;;;;;4854553;29;20043;-77
2023/04/24 04:47:11;;;;;;;4.75;4.32;;;;;;;;;;4880657;29;20790;-77
2023/04/24 04:49:38;;;;;;;6.40;4.00;;;;;;;;;;4871861;29;20033;-77
2023/04/24 04:52:03;;;;;;;5.70;3.90;;;;;;;;;;4889036;29;20496;-77
2023/04/24 04:54:28;;;;;;;3.57;3.27;;;;;;;;;;4871105;29;20039;-79
2023/04/24 04:56:54;;;;;;;6.65;3.40;;;;;;;;;;4887249;29;20252;-78
2023/04/24 04:59:20;;;;;;;5.68;3.90;;;;;;;;;;4888143;29;20073;-79
2023/04/24 05:01:45;;;;;;;3.85;3.05;;;;;;;;;;4861042;29;20028;-78
2023/04/24 05:04:10;;;;;;;4.68;3.13;;;;;;;;;;4887672;29;20059;-78
2023/04/24 05:06:36;;;;;;;6.72;3.40;;;;;;;;;;4887032;29;20044;-80
2023/04/24 05:09:01;;;;;;;5.53;3.67;;;;;;;;;;4846441;29;20027;-78
2023/04/24 05:11:26;;;;;;;3.40;3.10;;;;;;;;;;4889068;29;20510;-78
2023/04/24 05:13:52;;;;;;;7.10;3.03;;;;;;;;;;4886956;29;20072;-78
2023/04/24 05:16:17;;;;;;;3.63;3.30;;;;;;;;;;4872290;29;20361;-78
2023/04/24 05:18:42;;;;;;;4.22;3.40;;;;;;;;;;4875756;29;20754;-78
2023/04/24 05:21:08;;;;;;;4.00;2.90;;;;;;;;;;4882019;29;20040;-78
2023/04/24 05:23:33;;;;;;;9.63;3.33;;;;;;;;;;4879615;29;20265;-79
2023/04/24 05:25:58;;;;;;;6.80;3.70;;;;;;;;;;4887439;29;20933;-79
2023/04/24 05:28:28;;;;;;;7.05;3.90;;;;;;;;;;4888344;29;20566;-81
2023/04/24 05:30:53;;;;;;;6.22;3.53;;;;;;;;;;4886930;29;20028;-79
2023/04/24 05:33:18;;;;;;;4.90;3.42;;;;;;;;;;4870530;29;20034;-78
2023/04/24 05:35:45;;;;;;;5.47;3.60;;;;;;;;;;4888244;29;20024;-81
2023/04/24 05:38:12;;;;;;;4.80;3.47;;;;;;;;;;4887393;29;20256;-78
2023/04/24 05:40:37;;;;;;;5.00;3.40;;;;;;;;;;4869982;29;20028;-78
2023/04/24 05:43:02;;;;;;;4.57;3.20;;;;;;;;;;4886950;29;20021;-78
2023/04/24 05:45:27;;;;;;;4.30;3.07;;;;;;;;;;4869777;29;20021;-79
2023/04/24 05:47:53;;;;;;;5.28;3.10;;;;;;;;;;4886823;29;20264;-78
2023/04/24 05:50:18;;;;;;;5.45;3.10;;;;;;;;;;4869756;29;20084;-78
2023/04/24 05:52:44;;;;;;;4.82;2.90;;;;;;;;;;4887135;29;20467;-78
2023/04/24 05:55:09;;;;;;;4.18;3.08;;;;;;;;;;4843961;29;20554;-78
2023/04/24 05:57:35;;;;;;;3.22;2.90;;;;;;;;;;4871408;29;20061;-79
2023/04/24 06:00:00;;;;;;;4.75;3.10;;;;;;;;;;4869239;29;20112;-78
2023/04/24 06:02:25;;;;;;;10.20;3.37;;;;;;;;;;4879823;29;20092;-78
2023/04/24 06:04:51;;;;;;;6.32;3.35;;;;;;;;;;4880451;29;20092;-79
2023/04/24 06:07:17;;;;;;;10.27;3.92;;;;;;;;;;4862349;29;21824;-78
2023/04/24 06:09:42;;;;;;;6.32;3.10;;;;;;;;;;4848483;29;20059;-78
2023/04/24 06:12:08;;;;;;;4.25;3.55;;;;;;;;;;4883736;29;20367;-78
2023/04/24 06:14:34;;;;;;;4.72;3.50;;;;;;;;;;4857919;29;20096;-78
2023/04/24 06:16:59;;;;;;;5.20;3.55;;;;;;;;;;4858023;29;20471;-78
2023/04/24 06:19:24;;;;;;;4.97;3.70;;;;;;;;;;4883104;29;20100;-77
2023/04/24 06:21:49;;;;;;;5.78;3.95;;;;;;;;;;4850610;29;20033;-77
2023/04/24 06:24:17;;;;;;;6.03;3.33;;;;;;;;;;4867188;29;20021;-77
2023/04/24 06:26:43;;;;;;;4.57;3.20;;;;;;;;;;4866940;29;20385;-77
2023/04/24 06:29:08;;;;;;;5.75;3.72;;;;;;;;;;4866231;29;20021;-79
2023/04/24 06:31:36;;;;;;;5.03;3.83;;;;;;;;;;4867566;29;20113;-77
2023/04/24 06:34:02;;;;;;;5.60;3.20;;;;;;;;;;4868461;29;20029;-77
2023/04/24 06:36:28;;;;;;;6.28;2.95;;;;;;;;;;4870264;29;20535;-77
2023/04/24 06:38:53;;;;;;;4.35;3.22;;;;;;;;;;4866727;29;20391;-77
2023/04/24 06:41:19;;;;;;;4.10;3.00;;;;;;;;;;4863099;29;20060;-77
2023/04/24 06:43:44;;;;;;;4.15;2.92;;;;;;;;;;4865508;29;20032;-77
2023/04/24 06:46:10;;;;;;;4.20;2.92;;;;;;;;;;4866793;29;20064;-78
2023/04/24 06:48:35;;;;;;;6.88;3.10;;;;;;;;;;4872824;29;20123;-79
2023/04/24 06:51:00;;;;;;;4.77;3.60;;;;;;;;;;4864798;29;20554;-78
2023/04/24 06:53:26;;;;;;;5.73;3.37;;;;;;;;;;4852601;29;20285;-77
2023/04/24 06:55:51;;;;;;;3.05;2.83;;;;;;;;;;4865108;29;20805;-77
2023/04/24 06:58:16;;;;;;;4.50;2.73;;;;;;;;;;4878022;29;20025;-77
2023/04/24 07:00:41;;;;;;;4.60;3.17;;;;;;;;;;4850036;29;21300;-78
2023/04/24 07:03:07;;;;;;;6.83;2.90;;;;;;;;;;4864162;29;21463;-77
2023/04/24 07:05:34;;;;;;;6.32;3.40;;;;;;;;;;4868820;29;20414;-77
2023/04/24 07:08:00;;;;;;;4.67;2.80;;;;;;;;;;4864963;29;20064;-77
2023/04/24 07:10:28;;;;;;;3.57;2.70;;;;;;;;;;4864041;29;20140;-77
2023/04/24 07:12:54;;;;;;;3.97;3.13;;;;;;;;;;4840569;29;20652;-81
2023/04/24 07:15:19;;;;;;;3.65;2.97;;;;;;;;;;4850725;29;20055;-76
2023/04/24 07:17:45;;;;;;;5.88;3.15;;;;;;;;;;4837202;29;20021;-78
2023/04/24 07:20:11;;;;;;;4.72;3.20;;;;;;;;;;4838529;29;20093;-77
2023/04/24 07:22:39;;;;;;;3.60;3.20;;;;;;;;;;4849586;29;20036;-76
2023/04/24 07:25:04;;;;;;;5.43;3.38;;;;;;;;;;4869630;29;20068;-78
2023/04/24 07:27:30;;;;;;;6.00;3.78;;;;;;;;;;4877663;29;20128;-77
2023/04/24 07:29:55;;;;;;;5.70;3.42;;;;;;;;;;4840922;29;20021;-76
2023/04/24 07:32:20;;;;;;;3.95;3.15;;;;;;;;;;4851422;29;20025;-76
2023/04/24 07:34:46;;;;;;;4.68;3.63;;;;;;;;;;4856572;29;20033;-76
2023/04/24 07:37:11;;;;;;;5.57;3.25;;;;;;;;;;4871212;29;20064;-76
2023/04/24 07:39:36;;;;;;;5.60;3.80;;;;;;;;;;4875220;29;20491;-76
2023/04/24 07:42:02;;;;;;;6.53;4.80;;;;;;;;;;4865405;29;20893;-79
2023/04/24 07:44:27;;;;;;;5.57;3.17;;;;;;;;;;4873148;29;20024;-78
2023/04/24 07:46:52;;;;;;;3.15;2.85;;;;;;;;;;4882497;29;20044;-79
2023/04/24 07:49:18;;;;;;;4.13;3.33;;;;;;;;;;4866787;29;20617;-78
2023/04/24 07:51:43;;;;;;;3.92;3.33;;;;;;;;;;4874515;29;20901;-79
2023/04/24 07:54:08;;;;;;;7.03;3.47;;;;;;;;;;4864053;29;20815;-78
2023/04/24 07:56:34;;;;;;;3.83;3.22;;;;;;;;;;4880759;29;20279;-77
2023/04/24 07:59:01;;;;;;;4.38;3.97;;;;;;;;;;4883004;29;20025;-78
2023/04/24 08:01:26;;;;;;;5.78;4.38;;;;;;;;;;4898226;29;20111;-77
2023/04/24 08:03:51;;;;;;;3.92;3.47;;;;;;;;;;4882986;29;20369;-75
2023/04/24 08:06:16;;;;;;;4.05;3.65;;;;;;;;;;4883415;29;20115;-78
2023/04/24 08:08:42;;;;;;;4.10;3.40;;;;;;;;;;4883166;29;20052;-78
2023/04/24 08:11:07;;;;;;;5.80;4.00;;;;;;;;;;4897645;29;20021;-78
2023/04/24 08:13:32;;;;;;;5.97;3.90;;;;;;;;;;4883458;29;20261;-79
2023/04/24 08:15:58;;;;;;;4.77;3.77;;;;;;;;;;4882987;29;20028;-78
2023/04/24 08:18:23;;;;;;;4.20;3.33;;;;;;;;;;4898280;29;20299;-77
2023/04/24 08:20:48;;;;;;;4.30;3.72;;;;;;;;;;4882790;29;20030;-78
2023/04/24 08:23:14;;;;;;;3.85;3.15;;;;;;;;;;4897768;29;20119;-77
2023/04/24 08:25:39;;;;;;;3.88;3.30;;;;;;;;;;4896958;29;20032;-78
2023/04/24 08:28:05;;;;;;;3.97;3.60;;;;;;;;;;4883366;29;20055;-77
2023/04/24 08:30:30;;;;;;;4.63;3.70;;;;;;;;;;4883144;29;20025;-78
2023/04/24 08:32:56;;;;;;;6.47;3.60;;;;;;;;;;4882981;29;20503;-78
2023/04/24 08:35:22;;;;;;;7.10;3.53;;;;;;;;;;4883401;29;20039;-78
2023/04/24 08:37:48;;;;;;;6.88;3.35;;;;;;;;;;4882807;29;20048;-78
2023/04/24 08:40:14;;;;;;;6.13;3.40;;;;;;;;;;4883607;29;20420;-78
2023/04/24 08:42:41;;;;;;;4.78;3.50;;;;;;;;;;4882581;29;20411;-78
2023/04/24 08:45:07;;;;;;;4.13;3.20;;;;;;;;;;4897509;29;20020;-78
2023/04/24 08:47:33;;;;;;;4.35;3.95;;;;;;;;;;4882992;29;20820;-77
2023/04/24 08:49:59;;;;;;;4.72;3.65;;;;;;;;;;4883001;29;20038;-79
2023/04/24 08:52:25;;;;;;;5.18;3.53;;;;;;;;;;4885901;29;20128;-77
2023/04/24 08:54:52;;;;;;;3.97;3.55;;;;;;;;;;4868800;29;20035;-78
2023/04/24 08:57:18;;;;;;;4.68;3.40;;;;;;;;;;4886991;29;20027;-79
2023/04/24 08:59:44;;;;;;;4.00;3.25;;;;;;;;;;4886157;29;20028;-79
2023/04/24 09:02:10;;;;;;;6.38;3.33;;;;;;;;;;4886377;29;20063;-79
2023/04/24 09:04:35;;;;;;;3.92;3.45;;;;;;;;;;4886928;29;20103;-78
2023/04/24 09:07:01;;;;;;;6.32;3.92;;;;;;;;;;4869526;29;20036;-78
2023/04/24 09:09:29;;;;;;;3.80;3.35;;;;;;;;;;4868999;29;20024;-78
2023/04/24 09:11:55;;;;;;;3.72;3.35;;;;;;;;;;4886074;29;20410;-78
2023/04/24 09:14:21;;;;;;;4.35;3.50;;;;;;;;;;4886510;29;20424;-78
2023/04/24 09:16:46;;;;;;;3.53;3.22;;;;;;;;;;4885922;29;20486;-78
2023/04/24 09:19:12;;;;;;;4.63;3.35;;;;;;;;;;4886043;29;20090;-77
2023/04/24 09:21:37;;;;;;;3.97;3.53;;;;;;;;;;4877067;29;20779;-78
2023/04/24 09:24:04;;;;;;;3.50;3.20;;;;;;;;;;4886470;29;20140;-78
2023/04/24 09:26:31;;;;;;;3.53;3.22;;;;;;;;;;4879781;29;20524;-78
2023/04/24 09:28:57;;;;;;;4.57;3.70;;;;;;;;;;4869467;29;20455;-78
2023/04/24 09:31:22;;;;;;;4.95;3.60;;;;;;;;;;4881236;29;20030;-79
2023/04/24 09:33:57;;;;;;;4.15;3.75;;;;;;;;;;4867957;29;20024;-78
2023/04/24 09:36:28;;;;;;;3.88;3.40;;;;;;;;;;4880764;29;20034;-79
2023/04/24 09:38:57;;;;;;;4.43;3.53;;;;;;;;;;4862892;29;20407;-77
2023/04/24 09:41:22;;;;;;;3.75;3.40;;;;;;;;;;4867984;29;20168;-79
2023/04/24 09:43:47;;;;;;;3.45;3.08;;;;;;;;;;4880816;29;20652;-76
2023/04/24 09:46:13;;;;;;;3.40;3.00;;;;;;;;;;4882593;29;20032;-77
2023/04/24 09:48:38;;;;;;;4.75;3.30;;;;;;;;;;4877892;29;20025;-79
2023/04/24 09:51:06;;;;;;;3.42;3.13;;;;;;;;;;4872548;29;20109;-79
2023/04/24 09:53:31;;;;;;;4.88;3.80;;;;;;;;;;4886948;29;20021;-79
2023/04/24 09:56:07;;;;;;;4.10;3.70;;;;;;;;;;4869208;29;20123;-78
2023/04/24 09:58:32;;;;;;;4.28;3.25;;;;;;;;;;4886836;29;20080;-78
2023/04/24 10:00:57;;;;;;;4.65;3.08;;;;;;;;;;4886810;29;20428;-78
2023/04/24 10:03:29;;;;;;;5.05;3.50;;;;;;;;;;4878472;29;20491;-78
2023/04/24 10:05:57;;;;;;;3.83;3.53;;;;;;;;;;4877334;29;20068;-77
2023/04/24 10:08:23;;;;;;;4.80;3.55;;;;;;;;;;4868810;29;20029;-78
2023/04/24 10:10:48;;;;;;;5.57;3.65;;;;;;;;;;4884783;29;20039;-78
2023/04/24 10:13:15;;;;;;;3.90;3.20;;;;;;;;;;4873476;29;20427;-77
2023/04/24 10:15:41;;;;;;;5.72;3.38;;;;;;;;;;4876790;29;20017;-77
2023/04/24 10:18:07;;;;;;;4.53;3.40;;;;;;;;;;4877241;29;20149;-78
2023/04/24 10:20:33;;;;;;;3.50;3.20;;;;;;;;;;4877609;29;20026;-78
2023/04/24 10:22:59;;;;;;;5.32;3.50;;;;;;;;;;4880860;29;20494;-79
2023/04/24 10:25:26;;;;;;;3.75;3.45;;;;;;;;;;4877465;29;20028;-78
2023/04/24 10:27:52;;;;;;;4.07;3.75;;;;;;;;;;4885389;29;20636;-80
2023/04/24 10:30:18;;;;;;;7.88;3.60;;;;;;;;;;4879876;29;20237;-78
2023/04/24 10:32:44;;;;;;;3.47;3.17;;;;;;;;;;4877046;29;20522;-77
2023/04/24 10:35:11;;;;;;;3.38;3.10;;;;;;;;;;4864763;29;20029;-77
2023/04/24 10:37:38;;;;;;;3.92;3.10;;;;;;;;;;4868771;29;20406;-79
2023/04/24 10:40:03;;;;;;;3.83;3.40;;;;;;;;;;4868609;29;20027;-78
2023/04/24 10:42:29;;;;;;;3.47;3.17;;;;;;;;;;4878175;29;20025;-77
2023/04/24 10:44:55;;;;;;;5.38;3.38;;;;;;;;;;4877746;29;20056;-77
2023/04/24 10:47:20;;;;;;;3.30;3.00;;;;;;;;;;4881405;29;20083;-78
2023/04/24 10:49:46;;;;;;;4.30;3.53;;;;;;;;;;4886225;29;20499;-78
2023/04/24 10:52:12;;;;;;;3.28;3.08;;;;;;;;;;4884952;29;20296;-79
2023/04/24 10:54:40;;;;;;;4.38;3.08;;;;;;;;;;4885843;29;20497;-79
2023/04/24 10:57:18;;;;;;;3.72;2.85;;;;;;;;;;4868606;29;20020;-79
2023/04/24 10:59:43;;;;;;;4.07;3.53;;;;;;;;;;4885431;29;20063;-78
2023/04/24 11:02:09;;;;;;;3.70;3.40;;;;;;;;;;4868698;29;20037;-78
2023/04/24 11:04:37;;;;;;;4.57;3.22;;;;;;;;;;4864193;29;20037;-78
2023/04/24 11:07:03;;;;;;;12.50;3.60;;;;;;;;;;4867132;29;20064;-78
2023/04/24 11:09:32;;;;;;;4.20;2.92;;;;;;;;;;4862207;29;20309;-78
2023/04/24 11:11:57;;;;;;;;;;;;;;;;;;4857706;29;20085;-78
2023/04/24 11:14:23;;;;;;;3.90;3.50;;;;;;;;;;4867419;29;20346;-78
2023/04/24 11:16:52;;;;;;;3.70;2.97;;;;;;;;;;4885175;29;20028;-76
2023/04/24 11:19:23;;;;;;;3.20;3.00;;;;;;;;;;4867203;29;20292;-80
2023/04/24 11:21:55;;;;;;;3.08;2.83;;;;;;;;;;4860019;29;20020;-79
2023/04/24 11:24:23;;;;;;;11.70;3.50;;;;;;;;;;4877042;29;20402;-80
2023/04/24 11:26:50;;;;;;;5.25;3.28;;;;;;;;;;4882319;29;20039;-80
2023/04/24 11:29:16;;;;;;;4.30;3.40;;;;;;;;;;4866883;29;20025;-79
2023/04/24 11:31:48;;;;;;;4.97;3.65;;;;;;;;;;4881662;29;20044;-79
2023/04/24 11:34:14;;;;;;;8.65;3.45;;;;;;;;;;4869545;29;20503;-82
2023/04/24 11:36:40;;;;;;;9.02;3.05;;;;;;;;;;4884893;29;20032;-80
2023/04/24 11:39:06;;;;;;;3.33;3.03;;;;;;;;;;4878647;29;20028;-80
2023/04/24 11:41:31;;;;;;;3.13;2.83;;;;;;;;;;4868281;29;20080;-80
2023/04/24 11:43:57;;;;;;;3.60;3.40;;;;;;;;;;4877495;29;20115;-80
2023/04/24 11:46:22;;;;;;;4.80;3.47;;;;;;;;;;4852804;29;20121;-81
2023/04/24 11:48:48;;;;;;;2.58;2.38;;;;;;;;;;4878737;29;20491;-81
2023/04/24 11:51:13;;;;;;;5.60;3.20;;;;;;;;;;4882015;29;20553;-82
2023/04/24 11:53:39;;;;;;;3.20;3.00;;;;;;;;;;4869591;29;20280;-79
2023/04/24 11:56:04;;;;;;;5.60;3.08;;;;;;;;;;4865506;29;20063;-82
2023/04/24 11:58:35;;;;;;;3.47;3.08;;;;;;;;;;4878944;29;20654;-81
2023/04/24 12:01:01;;;;;;;5.20;3.20;;;;;;;;;;4865711;29;20481;-81
2023/04/24 12:03:26;;;;;;;4.68;3.20;;;;;;;;;;4879405;29;20024;-82
2023/04/24 12:05:51;;;;;;;4.50;3.17;;;;;;;;;;4865845;29;20491;-81
2023/04/24 12:08:43;;;;;;;7.15;3.10;;;;;;;;;;4878724;29;20069;-81
2023/04/24 12:11:08;;;;;;;6.18;3.97;;;;;;;;;;4866271;29;20384;-81
2023/04/24 12:13:34;;;;;;;6.18;4.50;;;;;;;;;;4877298;29;20025;-81
2023/04/24 12:16:01;;;;;;;4.18;3.75;;;;;;;;;;4865892;29;20051;-80
2023/04/24 12:18:27;;;;;;;5.32;3.63;;;;;;;;;;4877765;29;20029;-80
2023/04/24 12:20:52;;;;;;;8.50;3.72;;;;;;;;;;4864563;29;20021;-79
2023/04/24 12:23:33;;;;;;;11.23;4.32;;;;;;;;;;4880069;29;20049;-81
2023/04/24 12:26:01;;;;;;;10.15;4.93;;;;;;;;;;4866494;29;20028;-83
2023/04/24 12:28:34;;;;;;;10.60;6.07;;;;;;;;;;4887952;29;20032;-81
2023/04/24 12:31:00;;;;;;;10.43;5.15;;;;;;;;;;4886477;29;20017;-78
2023/04/24 12:33:26;;;;;;;8.27;4.80;;;;;;;;;;4883632;29;20032;-80
2023/04/24 12:35:53;;;;;;;4.50;3.15;;;;;;;;;;4858982;29;20335;-78
2023/04/24 12:38:21;;;;;;;12.80;6.93;;;;;;;;;;4887038;29;20021;-79
2023/04/24 12:40:47;;;;;;;10.75;7.53;;;;;;;;;;4864391;29;20037;-78
2023/04/24 12:43:16;;;;;;;8.47;4.93;;;;;;;;;;4882366;29;20089;-78
2023/04/24 12:45:41;;;;;;;7.88;7.07;;;;;;;;;;4886715;29;20352;-78
2023/04/24 12:48:06;;;;;;;10.20;7.30;;;;;;;;;;4887970;29;20592;-78
2023/04/24 12:50:31;;;;;;;9.05;7.07;;;;;;;;;;4885901;29;20491;-78
2023/04/24 12:52:57;;;;;;;6.70;6.20;;;;;;;;;;4874519;29;20021;-79
2023/04/24 12:55:22;;;;;;;7.80;6.50;;;;;;;;;;4874022;29;20881;-78
2023/04/24 12:57:47;;;;;;;7.60;5.40;;;;;;;;;;4890468;29;20336;-80
2023/04/24 13:00:13;;;;;;;8.38;5.93;;;;;;;;;;4875936;29;20833;-80
2023/04/24 13:02:38;;;;;;;7.82;5.63;;;;;;;;;;4869329;29;20060;-77
2023/04/24 13:05:03;;;;;;;6.63;5.20;;;;;;;;;;4878112;29;20061;-77
2023/04/24 13:07:29;;;;;;;6.68;6.07;;;;;;;;;;4869113;29;20056;-77
2023/04/24 13:09:55;;;;;;;6.03;5.50;;;;;;;;;;4887639;29;20054;-78
2023/04/24 13:12:20;;;;;;;7.68;5.25;;;;;;;;;;4887401;29;20017;-78
2023/04/24 13:14:46;;;;;;;5.70;5.30;;;;;;;;;;4885989;29;20886;-77
2023/04/24 13:17:12;;;;;;;6.68;4.68;;;;;;;;;;4886356;29;20031;-78
2023/04/24 13:19:38;;;;;;;5.25;4.85;;;;;;;;;;4869330;29;20080;-77
2023/04/24 13:22:04;;;;;;;6.22;3.72;;;;;;;;;;4888422;29;20438;-79
2023/04/24 13:24:30;;;;;;;5.07;4.43;;;;;;;;;;4869468;29;20024;-78
2023/04/24 13:26:56;;;;;;;4.82;4.43;;;;;;;;;;4869519;29;20147;-78
2023/04/24 13:29:22;;;;;;;5.65;4.97;;;;;;;;;;4886225;29;20048;-77
2023/04/24 13:31:47;;;;;;;5.63;5.20;;;;;;;;;;4869244;29;20036;-77
2023/04/24 13:34:13;;;;;;;6.15;5.63;;;;;;;;;;4886209;29;20032;-78
2023/04/24 13:36:38;;;;;;;7.55;6.10;;;;;;;;;;4868032;29;20406;-77
2023/04/24 13:39:05;;;;;;;8.73;6.28;;;;;;;;;;4869461;29;20033;-78
2023/04/24 13:41:30;;;;;;;6.47;5.97;;;;;;;;;;4868729;29;20039;-78
2023/04/24 13:43:55;;;;;;;5.43;4.93;;;;;;;;;;4886206;29;20563;-77
2023/04/24 13:46:21;;;;;;;5.13;4.07;;;;;;;;;;4885745;29;20029;-77
2023/04/24 13:48:46;;;;;;;4.53;4.18;;;;;;;;;;4869175;29;20032;-78
2023/04/24 13:51:11;;;;;;;4.83;4.43;;;;;;;;;;4886024;29;20892;-78
2023/04/24 13:53:38;;;;;;;4.68;4.15;;;;;;;;;;4868424;29;20272;-79
2023/04/24 13:56:04;;;;;;;4.82;4.43;;;;;;;;;;4868961;29;20028;-79
2023/04/24 13:58:29;;;;;;;6.35;5.85;;;;;;;;;;4885309;29;20399;-79
2023/04/24 14:00:55;;;;;;;6.57;5.97;;;;;;;;;;4881711;29;20047;-78
2023/04/24 14:03:20;;;;;;;5.55;5.05;;;;;;;;;;4883562;29;20423;-78
2023/04/24 14:05:45;;;;;;;5.40;5.00;;;;;;;;;;4878574;29;20035;-78
2023/04/24 14:08:11;;;;;;;6.60;5.53;;;;;;;;;;4880336;29;20065;-78
2023/04/24 14:10:36;;;;;;;6.25;5.68;;;;;;;;;;4885992;29;20063;-80
2023/04/24 14:13:02;;;;;;;5.70;5.30;;;;;;;;;;4886519;29;20388;-77
2023/04/24 14:15:27;;;;;;;6.10;5.53;;;;;;;;;;4885841;29;20545;-78
2023/04/24 14:17:53;;;;;;;5.50;5.00;;;;;;;;;;4886675;29;20562;-79
2023/04/24 14:20:18;;;;;;;5.38;5.03;;;;;;;;;;4886336;29;20028;-79
2023/04/24 14:22:43;;;;;;;4.93;4.57;;;;;;;;;;4886741;29;20088;-79
2023/04/24 14:25:09;;;;;;;5.55;4.05;;;;;;;;;;4888741;29;20059;-78
2023/04/24 14:27:34;;;;;;;4.38;3.97;;;;;;;;;;4872126;29;20123;-79
2023/04/24 14:29:59;;;;;;;3.35;3.05;;;;;;;;;;4891775;29;20051;-78
2023/04/24 14:32:25;;;;;;;3.92;3.22;;;;;;;;;;4874004;29;20056;-79
2023/04/24 14:34:51;;;;;;;3.08;2.88;;;;;;;;;;4880861;29;20024;-80